Terminal Aerodrome Forecast
Issued by NWS

Home | Current Version | Previous Version | Text Only | Print | Product List | Glossary On
Versions: 1 2 3 4 5 6 7 8 9 10 11 12
315
FTUS43 KIWX 201720
TAFSBN
TAF
KSBN 201720Z 2018/2118 23013G20KT P6SM SCT250
     FM202200 22010KT 5SM BR BKN015
     FM210200 21005KT 2SM -DZ BR BKN007
     FM210900 19005KT 3/4SM -DZ BR OVC005=

USA.gov is the U.S. government's official web portal to all federal, state and local government web resources and services.